createdAt,value
2023-04-02T00:00:41.117Z,995.46
2023-04-02T00:01:41.174Z,995.47
2023-04-02T00:02:41.160Z,995.47
2023-04-02T00:03:41.214Z,995.50
2023-04-02T00:04:41.077Z,995.50
2023-04-02T00:05:41.087Z,995.51
2023-04-02T00:06:41.066Z,995.52
2023-04-02T00:07:41.091Z,995.53
2023-04-02T00:08:41.223Z,995.55
2023-04-02T00:09:41.048Z,995.56
2023-04-02T00:10:41.039Z,995.57
2023-04-02T00:11:41.043Z,995.59
2023-04-02T00:12:41.012Z,995.62
2023-04-02T00:13:41.058Z,995.63
2023-04-02T00:14:40.983Z,995.64
2023-04-02T00:15:40.980Z,995.67
2023-04-02T00:16:41.026Z,995.68
2023-04-02T00:17:40.961Z,995.70
2023-04-02T00:18:40.942Z,995.71
2023-04-02T00:19:40.997Z,995.72
2023-04-02T00:20:40.920Z,995.73
2023-04-02T00:21:40.924Z,995.74
2023-04-02T00:22:40.892Z,995.75
2023-04-02T00:23:40.897Z,995.77
2023-04-02T00:24:40.871Z,995.78
2023-04-02T00:25:40.895Z,995.77
2023-04-02T00:26:40.856Z,995.78
2023-04-02T00:27:40.851Z,995.80
2023-04-02T00:28:40.826Z,995.80
2023-04-02T00:29:40.828Z,995.81
2023-04-02T00:30:40.812Z,995.82
2023-04-02T00:31:40.853Z,995.82
2023-04-02T00:32:40.793Z,995.85
2023-04-02T00:33:40.816Z,995.85
2023-04-02T00:34:40.769Z,995.86
2023-04-02T00:35:40.777Z,995.87
2023-04-02T00:36:40.756Z,995.89
2023-04-02T00:37:40.800Z,995.90
2023-04-02T00:38:40.723Z,995.91
2023-04-02T00:39:40.746Z,995.91
2023-04-02T00:40:40.715Z,995.91
2023-04-02T00:41:40.708Z,995.91
2023-04-02T00:42:40.686Z,995.93
2023-04-02T00:43:40.704Z,995.93
2023-04-02T00:44:40.666Z,995.95
2023-04-02T00:45:40.681Z,995.95
2023-04-02T00:46:40.639Z,995.96
2023-04-02T00:47:40.671Z,995.98
2023-04-02T00:48:40.615Z,996.00
2023-04-02T00:49:40.636Z,996.00
2023-04-02T00:50:40.614Z,996.00
2023-04-02T00:51:40.600Z,995.99
2023-04-02T00:52:40.616Z,996.00
2023-04-02T00:53:40.565Z,996.00
2023-04-02T00:54:40.564Z,996.00
2023-04-02T00:55:40.627Z,996.00
2023-04-02T00:56:40.546Z,996.00
2023-04-02T00:57:40.525Z,996.01
2023-04-02T00:58:40.536Z,996.01
2023-04-02T00:59:40.500Z,996.02
2023-04-02T01:00:40.514Z,996.02
2023-04-02T01:01:40.514Z,996.02
2023-04-02T01:02:40.540Z,996.03
2023-04-02T01:03:40.527Z,996.03
2023-04-02T01:04:40.470Z,996.03
2023-04-02T01:05:40.434Z,996.04
2023-04-02T01:06:40.454Z,996.05
2023-04-02T01:07:40.439Z,996.06
2023-04-02T01:08:40.413Z,996.06
2023-04-02T01:09:40.431Z,996.07
2023-04-02T01:10:40.436Z,996.08
2023-04-02T01:11:40.365Z,996.09
2023-04-02T01:12:40.381Z,996.10
2023-04-02T01:13:40.349Z,996.13
2023-04-02T01:14:40.352Z,996.12
2023-04-02T01:15:40.382Z,996.13
2023-04-02T01:16:40.336Z,996.15
2023-04-02T01:17:40.353Z,996.16
2023-04-02T01:18:40.303Z,996.16
2023-04-02T01:19:40.299Z,996.17
2023-04-02T01:20:40.293Z,996.17
2023-04-02T01:21:40.290Z,996.17
2023-04-02T01:22:40.274Z,996.18
2023-04-02T01:23:40.241Z,996.19
2023-04-02T01:24:40.253Z,996.20
2023-04-02T01:25:40.235Z,996.20
2023-04-02T01:26:40.237Z,996.21
2023-04-02T01:27:40.232Z,996.22
2023-04-02T01:28:40.205Z,996.23
2023-04-02T01:29:40.177Z,996.24
2023-04-02T06:00:50.871Z,999.87
2023-04-02T06:01:51.881Z,999.89
2023-04-02T06:02:51.809Z,999.90
2023-04-02T06:03:51.786Z,999.92
2023-04-02T06:04:51.753Z,999.93
2023-04-02T06:05:51.737Z,999.94
2023-04-02T06:06:51.728Z,999.96
2023-04-02T06:07:51.691Z,999.97
2023-04-02T06:08:51.692Z,999.99
2023-04-02T06:09:51.720Z,1000.00
2023-04-02T06:10:51.728Z,1000.02
2023-04-02T06:11:51.639Z,1000.04
2023-04-02T06:12:51.650Z,1000.06
2023-04-02T06:13:51.633Z,1000.08
2023-04-02T06:14:51.640Z,1000.10
2023-04-02T06:15:51.596Z,1000.12
2023-04-02T06:16:51.676Z,1000.14
2023-04-02T06:17:51.652Z,1000.17
2023-04-02T06:18:51.598Z,1000.20
2023-04-02T06:19:51.566Z,1000.23
2023-04-02T06:20:51.571Z,1000.28
2023-04-02T06:21:51.533Z,1000.37
2023-04-02T06:22:51.579Z,1000.39
2023-04-02T06:23:51.536Z,1000.42
2023-04-02T06:24:51.518Z,1000.49
2023-04-02T06:25:52.755Z,1000.55
2023-04-02T06:26:51.515Z,1000.50
2023-04-02T06:27:51.486Z,1000.52
2023-04-02T06:28:51.533Z,1000.56
2023-04-02T06:29:51.476Z,1000.64
2023-04-02T06:30:51.498Z,1000.59
2023-04-02T06:31:51.479Z,1000.59
2023-04-02T06:32:51.511Z,1000.65
2023-04-02T06:33:51.412Z,1000.64
2023-04-02T06:34:51.414Z,1000.67
2023-04-02T06:35:51.454Z,1000.70
2023-04-02T06:36:51.441Z,1000.70
2023-04-02T06:37:51.404Z,1000.72
2023-04-02T06:38:51.390Z,1000.73
2023-04-02T06:39:51.374Z,1000.76
2023-04-02T06:40:51.355Z,1000.78
2023-04-02T06:41:51.345Z,1000.82
2023-04-02T06:42:51.358Z,1000.82
2023-04-02T06:43:51.319Z,1000.85
2023-04-02T06:44:51.326Z,1000.82
2023-04-02T06:45:51.350Z,1000.89
2023-04-02T06:46:52.553Z,1000.91
2023-04-02T06:47:51.303Z,1000.92
2023-04-02T06:48:51.296Z,1000.94
2023-04-02T06:49:51.353Z,1000.95
2023-04-02T06:50:51.252Z,1001.00
2023-04-02T06:51:51.228Z,1001.03
2023-04-02T06:52:51.249Z,1001.05
2023-04-02T06:53:51.221Z,1001.07
2023-04-02T06:54:51.278Z,1001.13
2023-04-02T06:55:51.208Z,1001.16
2023-04-02T06:56:51.208Z,1001.18
2023-04-02T06:57:51.167Z,1001.20
2023-04-02T06:58:51.168Z,1001.25
2023-04-02T06:59:51.166Z,1001.28
2023-04-02T07:00:51.171Z,1001.31
2023-04-02T07:01:51.186Z,1001.33
2023-04-02T07:02:51.183Z,1001.36
2023-04-02T07:03:51.102Z,1001.39
2023-04-02T07:04:51.153Z,1001.43
2023-04-02T07:05:51.105Z,1001.43
2023-04-02T07:06:51.130Z,1001.48
2023-04-02T07:07:51.062Z,1001.47
2023-04-02T07:08:51.046Z,1001.53
2023-04-02T07:09:51.031Z,1001.55
2023-04-02T07:10:51.065Z,1001.57
2023-04-02T07:11:51.009Z,1001.59
2023-04-02T07:12:51.036Z,1001.64
2023-04-02T07:13:50.993Z,1001.67
2023-04-02T07:14:50.990Z,1001.68
2023-04-02T07:15:50.986Z,1001.73
2023-04-02T07:16:50.991Z,1001.77
2023-04-02T07:17:51.091Z,1001.75
2023-04-02T07:18:50.960Z,1001.77
2023-04-02T07:19:50.948Z,1001.83
2023-04-02T07:20:52.179Z,1001.84
2023-04-02T07:21:50.906Z,1001.86
2023-04-02T07:22:50.935Z,1001.88
2023-04-02T07:23:50.891Z,1001.90
2023-04-02T07:24:50.897Z,1001.97
2023-04-02T07:25:50.893Z,1001.98
2023-04-02T07:26:50.877Z,1001.98
2023-04-02T07:27:50.834Z,1002.03
2023-04-02T07:28:50.889Z,1002.07
2023-04-02T07:29:50.817Z,1002.07
2023-04-02T07:30:50.824Z,1002.12
2023-04-02T07:31:50.864Z,1002.13
2023-04-02T07:32:50.881Z,1002.16
2023-04-02T07:33:50.776Z,1002.17
2023-04-02T07:34:50.769Z,1002.21
2023-04-02T07:35:50.794Z,1002.23
2023-04-02T07:36:50.766Z,1002.25
2023-04-02T07:37:50.737Z,1002.28
2023-04-02T07:38:50.781Z,1002.30
2023-04-02T07:39:50.704Z,1002.32
2023-04-02T07:40:50.732Z,1002.34
2023-04-02T07:41:50.687Z,1002.36
2023-04-02T07:42:50.722Z,1002.37
2023-04-02T07:43:50.699Z,1002.40
2023-04-02T07:44:50.685Z,1002.40
2023-04-02T07:45:50.644Z,1002.42
2023-04-02T07:46:50.721Z,1002.45
2023-04-02T07:47:50.672Z,1002.50
2023-04-02T07:48:50.668Z,1002.55
2023-04-02T07:49:50.631Z,1002.52
2023-04-02T07:50:50.609Z,1002.53
2023-04-02T07:51:50.599Z,1002.56
2023-04-02T07:52:50.623Z,1002.60
2023-04-02T07:53:50.644Z,1002.62
2023-04-02T07:54:50.574Z,1002.67
2023-04-02T07:55:50.588Z,1002.65
2023-04-02T07:56:50.671Z,1002.70
2023-04-02T07:57:50.570Z,1002.70
2023-04-02T07:58:50.534Z,1002.70
2023-04-02T07:59:50.512Z,1002.75
2023-04-02T08:00:50.514Z,1002.75
2023-04-02T08:01:50.538Z,1002.78
2023-04-02T08:02:50.591Z,1002.80
2023-04-02T08:03:53.009Z,1002.85
2023-04-02T08:04:50.476Z,1002.86
2023-04-02T08:05:50.439Z,1002.88
2023-04-02T08:06:50.508Z,1002.94
2023-04-02T08:07:50.465Z,1002.94
2023-04-02T08:08:50.488Z,1002.95
2023-04-02T08:09:50.399Z,1002.98
2023-04-02T08:10:50.440Z,1002.98
2023-04-02T08:11:50.382Z,1003.04
2023-04-02T08:12:50.434Z,1003.01
2023-04-02T08:13:50.393Z,1003.05
2023-04-02T08:14:50.371Z,1003.10
2023-04-02T08:15:50.343Z,1003.09
2023-04-02T08:16:50.366Z,1003.11
2023-04-02T08:17:50.339Z,1003.13
2023-04-02T08:18:50.326Z,1003.16
2023-04-02T08:19:55.232Z,1003.19
2023-04-02T08:20:50.324Z,1003.23
2023-04-02T08:21:50.267Z,1003.25
2023-04-02T08:22:50.284Z,1003.32
2023-04-02T08:23:50.251Z,1003.39
2023-04-02T08:24:50.290Z,1003.30
2023-04-02T08:25:50.252Z,1003.36
2023-04-02T08:26:50.276Z,1003.39
2023-04-02T08:27:50.222Z,1003.41
2023-04-02T08:28:50.234Z,1003.42
2023-04-02T08:29:50.192Z,1003.46
2023-04-02T08:30:50.278Z,1003.51
2023-04-02T08:31:50.169Z,1003.50
2023-04-02T08:32:50.212Z,1003.51
2023-04-02T08:33:50.157Z,1003.56
2023-04-02T08:34:50.152Z,1003.56
2023-04-02T08:35:50.144Z,1003.60
2023-04-02T08:36:50.180Z,1003.61
2023-04-02T08:37:50.113Z,1003.60
2023-04-02T08:38:50.108Z,1003.68
2023-04-02T08:39:50.073Z,1003.65
2023-04-02T08:40:50.099Z,1003.69
2023-04-02T08:41:50.082Z,1003.73
2023-04-02T08:42:50.118Z,1003.71
2023-04-02T08:43:50.054Z,1003.72
2023-04-02T08:44:50.057Z,1003.75
2023-04-02T08:45:50.091Z,1003.74
2023-04-02T08:46:50.022Z,1003.79
2023-04-02T08:47:50.078Z,1003.80
2023-04-02T08:48:50.013Z,1003.83
2023-04-02T08:49:50.001Z,1003.86
2023-04-02T08:50:49.974Z,1003.89
2023-04-02T08:51:49.945Z,1003.93
2023-04-02T08:52:49.969Z,1003.94
2023-04-02T08:53:49.961Z,1003.95
2023-04-02T08:54:49.935Z,1003.98
2023-04-02T08:55:49.948Z,1004.01
2023-04-02T08:56:49.917Z,1004.02
2023-04-02T08:57:49.917Z,1004.05
2023-04-02T08:58:49.894Z,1004.10
2023-04-02T08:59:49.893Z,1004.06
2023-04-02T09:00:49.850Z,1004.11
2023-04-02T09:01:49.906Z,1004.12
2023-04-02T09:02:49.873Z,1004.12
2023-04-02T09:03:49.843Z,1004.14
2023-04-02T09:04:49.846Z,1004.15
2023-04-02T09:05:49.820Z,1004.16
2023-04-02T09:06:49.823Z,1004.18
2023-04-02T09:07:49.792Z,1004.19
2023-04-02T09:08:49.792Z,1004.17
2023-04-02T09:09:49.827Z,1004.22
2023-04-02T09:10:49.749Z,1004.24
2023-04-02T09:11:49.773Z,1004.24
2023-04-02T09:12:49.756Z,1004.29
2023-04-02T09:13:49.758Z,1004.29
2023-04-02T09:14:49.708Z,1004.32
2023-04-02T09:15:49.722Z,1004.34
2023-04-02T09:16:49.690Z,1004.35
2023-04-02T09:17:54.053Z,1004.33
2023-04-02T09:18:49.696Z,1004.42
2023-04-02T09:19:49.701Z,1004.42
2023-04-02T09:20:49.639Z,1004.43
2023-04-02T09:21:49.664Z,1004.44
2023-04-02T09:22:49.652Z,1004.45
2023-04-02T09:23:49.690Z,1004.49
2023-04-02T09:24:49.636Z,1004.48
2023-04-02T09:26:01.352Z,1004.49
2023-04-02T09:26:49.613Z,1004.50
2023-04-02T09:27:49.591Z,1004.51
2023-04-02T09:28:49.591Z,1004.58
2023-04-02T09:29:49.601Z,1004.55
2023-04-02T09:30:49.546Z,1004.62
2023-04-02T09:31:49.616Z,1004.59
2023-04-02T09:32:49.614Z,1004.64
2023-04-02T09:33:49.555Z,1004.66
2023-04-02T09:34:49.550Z,1004.70
2023-04-02T09:35:49.552Z,1004.77
2023-04-02T09:36:49.486Z,1004.74
2023-04-02T09:37:49.500Z,1004.79
2023-04-02T09:38:49.478Z,1004.83
2023-04-02T09:39:49.487Z,1004.82
2023-04-02T09:40:49.541Z,1004.87
2023-04-02T09:41:59.048Z,1004.88
2023-04-02T09:42:49.432Z,1004.90
2023-04-02T09:43:49.421Z,1004.95
2023-04-02T09:44:49.407Z,1004.94
2023-04-02T09:45:49.413Z,1004.96
2023-04-02T09:46:49.412Z,1004.99
2023-04-02T09:47:49.432Z,1005.02
2023-04-02T09:48:49.349Z,1005.07
2023-04-02T09:49:49.438Z,1005.09
2023-04-02T09:50:49.342Z,1005.08
2023-04-02T09:51:49.360Z,1005.10
2023-04-02T09:52:49.347Z,1005.10
2023-04-02T09:53:49.455Z,1005.09
2023-04-02T09:54:49.322Z,1005.10
2023-04-02T09:55:49.322Z,1005.08
2023-04-02T09:56:49.334Z,1005.13
2023-04-02T09:57:49.310Z,1005.10
2023-04-02T09:58:49.331Z,1005.15
2023-04-02T09:59:49.258Z,1005.16
2023-04-02T10:00:49.312Z,1005.16
2023-04-02T10:01:49.242Z,1005.18
2023-04-02T10:02:49.438Z,1005.21
2023-04-02T10:03:49.277Z,1005.19
2023-04-02T10:04:49.258Z,1005.20
2023-04-02T10:05:49.202Z,1005.23
2023-04-02T10:06:49.195Z,1005.24
2023-04-02T10:07:49.185Z,1005.25
2023-04-02T10:08:49.179Z,1005.23
2023-04-02T10:09:49.148Z,1005.29
2023-04-02T10:10:49.133Z,1005.35
2023-04-02T10:11:49.132Z,1005.23
2023-04-02T10:12:49.107Z,1005.38
2023-04-02T10:13:49.111Z,1005.38
2023-04-02T10:14:49.077Z,1005.38
2023-04-02T10:15:49.093Z,1005.41
2023-04-02T10:16:49.159Z,1005.44
2023-04-02T10:17:49.075Z,1005.47
2023-04-02T10:18:49.111Z,1005.47
2023-04-02T10:19:49.065Z,1005.50
2023-04-02T10:20:51.532Z,1005.51
2023-04-02T10:21:49.025Z,1005.52
2023-04-02T10:22:49.039Z,1005.56
2023-04-02T10:23:48.983Z,1005.55
2023-04-02T10:24:48.984Z,1005.58
2023-04-02T10:25:48.994Z,1005.62
2023-04-02T10:26:48.940Z,1005.59
2023-04-02T10:27:48.963Z,1005.62
2023-04-02T10:28:48.927Z,1005.65
2023-04-02T10:29:48.970Z,1005.65
2023-04-02T10:30:48.938Z,1005.70
2023-04-02T10:31:49.021Z,1005.72
2023-04-02T10:32:48.963Z,1005.72
2023-04-02T10:33:48.903Z,1005.76
2023-04-02T10:34:48.859Z,1005.79
2023-04-02T10:35:48.890Z,1005.79
2023-04-02T10:36:48.920Z,1005.85
2023-04-02T10:37:48.858Z,1005.82
2023-04-02T10:38:48.859Z,1005.87
2023-04-02T10:39:48.859Z,1005.85
2023-04-02T10:40:48.835Z,1005.92
2023-04-02T10:41:48.835Z,1005.89
2023-04-02T10:42:49.110Z,1005.84
2023-04-02T10:43:48.804Z,1005.95
2023-04-02T10:44:48.764Z,1005.92
2023-04-02T10:45:48.826Z,1005.94
2023-04-02T10:46:48.761Z,1005.97
2023-04-02T10:47:48.793Z,1005.92
2023-04-02T10:48:48.778Z,1006.00
2023-04-02T10:49:48.800Z,1006.04
2023-04-02T10:50:48.713Z,1005.99
2023-04-02T10:51:48.743Z,1006.07
2023-04-02T10:52:48.689Z,1006.10
2023-04-02T10:53:48.727Z,1006.07
2023-04-02T10:54:48.738Z,1006.09
2023-04-02T10:55:50.879Z,1006.06
2023-04-02T10:56:51.350Z,1006.12
2023-04-02T10:57:48.655Z,1006.08
2023-04-02T10:58:48.638Z,1006.18
2023-04-02T10:59:48.631Z,1006.18
2023-04-02T11:00:48.646Z,1006.16
2023-04-02T11:01:48.633Z,1006.22
2023-04-02T11:02:48.643Z,1006.23
2023-04-02T11:03:48.881Z,1006.23
2023-04-02T11:04:48.586Z,1006.23
2023-04-02T11:05:48.588Z,1006.21
2023-04-02T11:06:48.536Z,1006.24
2023-04-02T11:07:48.534Z,1006.20
2023-04-02T11:08:48.494Z,1006.25
2023-04-02T11:09:48.527Z,1006.27
2023-04-02T11:10:48.483Z,1006.27
2023-04-02T11:11:48.483Z,1006.30
2023-04-02T11:12:48.482Z,1006.29
2023-04-02T11:13:48.467Z,1006.34
2023-04-02T11:14:48.450Z,1006.36
2023-04-02T11:15:48.520Z,1006.39
2023-04-02T11:16:48.564Z,1006.39
2023-04-02T11:17:48.496Z,1006.44
2023-04-02T11:18:48.452Z,1006.42
2023-04-02T11:19:48.403Z,1006.46
2023-04-02T11:20:48.429Z,1006.43
2023-04-02T11:21:58.669Z,1006.48
2023-04-02T11:22:48.365Z,1006.48
2023-04-02T11:23:48.354Z,1006.43
2023-04-02T11:24:48.370Z,1006.50
2023-04-02T11:25:48.385Z,1006.44
2023-04-02T11:26:48.323Z,1006.49
2023-04-02T11:27:48.324Z,1006.55
2023-04-02T11:28:48.286Z,1006.60
2023-04-02T11:29:48.299Z,1006.63
2023-04-02T11:30:48.288Z,1006.55
2023-04-02T11:31:48.372Z,1006.61
2023-04-02T11:32:48.279Z,1006.58
2023-04-02T11:33:50.097Z,1006.62
2023-04-02T11:34:56.466Z,1006.67
2023-04-02T11:35:48.268Z,1006.73
2023-04-02T11:36:48.225Z,1006.70
2023-04-02T11:37:48.226Z,1006.74
2023-04-02T11:38:48.196Z,1006.63
2023-04-02T11:39:48.212Z,1006.77
2023-04-02T11:40:48.190Z,1006.80
2023-04-02T11:41:48.168Z,1006.81
2023-04-02T11:42:48.238Z,1006.86
2023-04-02T11:43:48.190Z,1006.90
2023-04-02T11:44:48.139Z,1006.88
2023-04-02T11:45:52.799Z,1006.87
2023-04-02T11:46:48.200Z,1006.90
2023-04-02T11:47:48.175Z,1006.96
2023-04-02T11:48:48.118Z,1006.93
2023-04-02T11:49:48.086Z,1007.02
2023-04-02T11:50:48.082Z,1007.03
2023-04-02T11:51:48.689Z,1007.01
2023-04-02T11:52:48.045Z,1007.01
2023-04-02T11:53:48.053Z,1007.08
2023-04-02T11:54:48.107Z,1007.12
2023-04-02T11:55:48.037Z,1007.12
2023-04-02T11:56:48.002Z,1006.98
2023-04-02T11:57:48.044Z,1007.15
2023-04-02T11:58:47.991Z,1007.11
2023-04-02T11:59:48.031Z,1007.18
2023-04-02T12:00:47.971Z,1007.19
2023-04-02T12:01:47.992Z,1007.19
2023-04-02T12:02:47.968Z,1007.21
2023-04-02T12:03:47.957Z,1007.30
2023-04-02T12:04:48.009Z,1007.28
2023-04-02T12:05:47.944Z,1007.28
2023-04-02T12:06:47.890Z,1007.31
2023-04-02T12:07:47.933Z,1007.31
2023-04-02T12:08:57.096Z,1007.31
2023-04-02T12:09:47.936Z,1007.36
2023-04-02T12:10:47.922Z,1007.35
2023-04-02T12:11:48.108Z,1007.36
2023-04-02T12:12:47.840Z,1007.40
2023-04-02T12:13:48.703Z,1007.39
2023-04-02T12:14:47.816Z,1007.45
2023-04-02T12:15:47.868Z,1007.42
2023-04-02T12:16:47.835Z,1007.49
2023-04-02T12:17:47.823Z,1007.45
2023-04-02T12:18:47.756Z,1007.48
2023-04-02T12:19:47.792Z,1007.47
2023-04-02T12:20:47.744Z,1007.49
2023-04-02T12:21:47.808Z,1007.51
2023-04-02T12:22:47.713Z,1007.57
2023-04-02T12:23:47.721Z,1007.51
2023-04-02T12:24:47.696Z,1007.55
2023-04-02T12:25:47.698Z,1007.49
2023-04-02T12:26:47.673Z,1007.56
2023-04-02T12:27:47.700Z,1007.56
2023-04-02T12:28:47.664Z,1007.57
2023-04-02T12:29:47.661Z,1007.60
2023-04-02T12:30:47.688Z,1007.61
2023-04-02T12:31:47.663Z,1007.67
2023-04-02T12:32:47.670Z,1007.63
2023-04-02T12:33:47.629Z,1007.65
2023-04-02T12:34:47.584Z,1007.64
2023-04-02T12:35:47.614Z,1007.68
2023-04-02T12:36:47.589Z,1007.69
2023-04-02T12:37:47.574Z,1007.73
2023-04-02T12:38:47.608Z,1007.71
2023-04-02T12:39:47.610Z,1007.77
2023-04-02T12:40:47.521Z,1007.76
2023-04-02T12:41:47.547Z,1007.82
2023-04-02T12:42:47.514Z,1007.88
2023-04-02T12:43:47.520Z,1007.84
2023-04-02T12:44:47.508Z,1007.85
2023-04-02T12:45:47.525Z,1007.93
2023-04-02T12:46:47.454Z,1007.92
2023-04-02T12:47:47.508Z,1007.93
2023-04-02T12:48:47.440Z,1007.96
2023-04-02T12:49:47.488Z,1008.03
2023-04-02T12:50:47.412Z,1008.02
2023-04-02T12:51:47.458Z,1008.01
2023-04-02T12:52:47.395Z,1008.04
2023-04-02T12:53:47.411Z,1008.10
2023-04-02T12:54:47.385Z,1008.02
2023-04-02T12:55:47.385Z,1008.07
2023-04-02T12:56:47.449Z,1008.08
2023-04-02T12:57:47.388Z,1008.12
2023-04-02T12:58:47.344Z,1008.12
2023-04-02T12:59:47.344Z,1008.17
2023-04-02T13:00:47.349Z,1008.17
2023-04-02T13:01:47.333Z,1008.14
2023-04-02T13:02:47.378Z,1008.19
2023-04-02T13:03:47.376Z,1008.19
2023-04-02T13:04:47.263Z,1008.20
2023-04-02T13:05:47.287Z,1008.20
2023-04-02T13:06:47.251Z,1008.19
2023-04-02T13:07:47.253Z,1008.22
2023-04-02T13:08:47.246Z,1008.24
2023-04-02T13:09:47.246Z,1008.25
2023-04-02T13:10:47.221Z,1008.19
2023-04-02T13:11:47.215Z,1008.24
2023-04-02T13:12:47.211Z,1008.27
2023-04-02T13:13:47.203Z,1008.23
2023-04-02T13:14:47.172Z,1008.26
2023-04-02T13:15:47.199Z,1008.30
2023-04-02T13:16:47.166Z,1008.33
2023-04-02T13:17:47.161Z,1008.32
2023-04-02T13:18:47.145Z,1008.28
2023-04-02T13:19:47.133Z,1008.30
2023-04-02T13:20:47.129Z,1008.33
2023-04-02T13:21:47.111Z,1008.36
2023-04-02T13:22:47.102Z,1008.36
2023-04-02T13:23:47.070Z,1008.38
2023-04-02T13:24:47.096Z,1008.37
2023-04-02T13:25:47.054Z,1008.38
2023-04-02T13:26:47.089Z,1008.38
2023-04-02T13:27:47.074Z,1008.39
2023-04-02T13:28:47.054Z,1008.41
2023-04-02T13:29:47.000Z,1008.44
2023-04-02T13:30:47.037Z,1008.48
2023-04-02T13:31:47.030Z,1008.46
2023-04-02T13:32:47.028Z,1008.45
2023-04-02T13:33:47.034Z,1008.45
2023-04-02T13:34:46.995Z,1008.55
2023-04-02T13:35:47.010Z,1008.50
2023-04-02T13:36:46.967Z,1008.51
2023-04-02T13:37:46.974Z,1008.50
2023-04-02T13:38:46.939Z,1008.48
2023-04-02T13:39:46.957Z,1008.48
2023-04-02T13:40:47.000Z,1008.45
2023-04-02T13:41:46.929Z,1008.51
2023-04-02T13:42:47.752Z,1008.49
2023-04-02T13:43:46.863Z,1008.52
2023-04-02T13:44:46.873Z,1008.49
2023-04-02T13:45:46.923Z,1008.55
2023-04-02T13:46:46.865Z,1008.55
2023-04-02T13:47:46.844Z,1008.57
2023-04-02T13:48:46.894Z,1008.54
2023-04-02T13:49:46.789Z,1008.53
2023-04-02T13:50:46.904Z,1008.52
2023-04-02T13:51:46.831Z,1008.60
2023-04-02T13:52:46.822Z,1008.54
2023-04-02T13:53:46.800Z,1008.61
2023-04-02T13:54:46.768Z,1008.61
2023-04-02T13:55:46.756Z,1008.65
2023-04-02T13:56:46.879Z,1008.65
2023-04-02T13:57:46.729Z,1008.67
2023-04-02T13:58:46.720Z,1008.73
2023-04-02T13:59:46.734Z,1008.69
2023-04-02T14:00:46.750Z,1008.75
2023-04-02T14:01:46.717Z,1008.76
2023-04-02T14:02:46.740Z,1008.77
2023-04-02T14:03:46.660Z,1008.81
2023-04-02T14:04:49.320Z,1008.82
2023-04-02T14:05:46.633Z,1008.85
2023-04-02T14:06:46.667Z,1008.89
2023-04-02T14:07:46.623Z,1008.85
2023-04-02T14:08:46.627Z,1008.88
2023-04-02T14:09:46.600Z,1008.89
2023-04-02T14:10:46.592Z,1008.95
2023-04-02T14:11:46.557Z,1008.93
2023-04-02T14:12:46.566Z,1008.95
2023-04-02T14:13:46.550Z,1009.05
2023-04-02T14:14:46.553Z,1008.94
2023-04-02T14:15:46.551Z,1008.99
2023-04-02T14:16:46.586Z,1009.01
2023-04-02T14:17:46.547Z,1009.06
2023-04-02T14:18:46.523Z,1009.07
2023-04-02T14:19:46.474Z,1009.12
2023-04-02T14:20:46.558Z,1009.04
2023-04-02T14:21:46.497Z,1009.09
2023-04-02T14:22:46.480Z,1009.07
2023-04-02T14:23:46.450Z,1009.13
2023-04-02T14:24:46.460Z,1009.14
2023-04-02T14:25:46.414Z,1009.18
2023-04-02T14:26:46.416Z,1009.15
2023-04-02T14:27:46.419Z,1009.17
2023-04-02T14:28:46.415Z,1009.19
2023-04-02T14:29:46.383Z,1009.19
2023-04-02T14:30:46.441Z,1009.21
2023-04-02T14:31:46.351Z,1009.21
2023-04-02T14:32:46.411Z,1009.24
2023-04-02T14:33:46.389Z,1009.22
2023-04-02T14:34:46.337Z,1009.20
2023-04-02T14:35:46.441Z,1009.23
2023-04-02T14:36:46.356Z,1009.16
2023-04-02T14:37:46.294Z,1009.22
2023-04-02T14:38:46.290Z,1009.18
2023-04-02T14:39:46.266Z,1009.27
2023-04-02T14:40:46.304Z,1009.31
2023-04-02T14:41:46.279Z,1009.31
2023-04-02T14:42:46.285Z,1009.33
2023-04-02T14:43:46.221Z,1009.34
2023-04-02T14:44:46.238Z,1009.44
2023-04-02T14:45:46.217Z,1009.36
2023-04-02T14:46:46.244Z,1009.41
2023-04-02T14:47:46.214Z,1009.42
2023-04-02T14:48:46.251Z,1009.46
2023-04-02T14:49:46.166Z,1009.51
2023-04-02T14:50:46.204Z,1009.54
2023-04-02T14:51:46.131Z,1009.57
2023-04-02T14:52:46.183Z,1009.55
2023-04-02T14:53:46.129Z,1009.59
2023-04-02T14:54:46.163Z,1009.60
2023-04-02T14:55:46.102Z,1009.63
2023-04-02T14:56:46.112Z,1009.67
2023-04-02T14:57:46.070Z,1009.69
2023-04-02T14:58:46.100Z,1009.66
2023-04-02T14:59:46.055Z,1009.72
2023-04-02T15:00:46.061Z,1009.72
2023-04-02T15:01:46.050Z,1009.71
2023-04-02T15:02:46.071Z,1009.73
2023-04-02T15:03:46.064Z,1009.77
2023-04-02T15:04:46.065Z,1009.71
2023-04-02T15:05:46.009Z,1009.75
2023-04-02T15:06:46.004Z,1009.82
2023-04-02T15:07:45.978Z,1009.81
2023-04-02T15:08:50.192Z,1009.84
2023-04-02T15:09:45.973Z,1009.84
2023-04-02T15:10:45.986Z,1009.85
2023-04-02T15:11:45.969Z,1009.88
2023-04-02T15:12:45.967Z,1009.90
2023-04-02T15:13:45.925Z,1009.91
2023-04-02T15:14:45.913Z,1009.95
2023-04-02T15:15:45.892Z,1009.94
2023-04-02T15:16:45.983Z,1009.97
2023-04-02T15:17:45.918Z,1009.98
2023-04-02T15:18:45.860Z,1009.99
2023-04-02T15:19:45.844Z,1009.99
2023-04-02T15:20:45.863Z,1009.97
2023-04-02T15:21:55.849Z,1009.97
2023-04-02T15:22:45.845Z,1009.97
2023-04-02T15:23:45.858Z,1010.00
2023-04-02T15:24:45.798Z,1009.96
2023-04-02T15:25:45.782Z,1009.98
2023-04-02T15:26:45.780Z,1010.03
2023-04-02T15:27:45.761Z,1010.05
2023-04-02T15:28:45.765Z,1010.02
2023-04-02T15:29:45.765Z,1010.04
2023-04-02T15:30:45.751Z,1010.10
2023-04-02T15:31:45.754Z,1010.05
2023-04-02T15:32:45.792Z,1010.04
2023-04-02T15:33:45.696Z,1010.02
2023-04-02T15:34:45.707Z,1010.06
2023-04-02T15:35:45.743Z,1010.04
2023-04-02T15:36:45.732Z,1010.03
2023-04-02T15:37:45.660Z,1010.07
2023-04-02T15:38:45.664Z,1010.10
2023-04-02T15:39:45.638Z,1010.02
2023-04-02T15:40:45.667Z,1010.12
2023-04-02T15:41:45.635Z,1010.12
2023-04-02T15:42:45.642Z,1010.16
2023-04-02T15:43:45.608Z,1010.18
2023-04-02T15:44:45.582Z,1010.23
2023-04-02T15:45:45.630Z,1010.22
2023-04-02T15:46:45.585Z,1010.26
2023-04-02T15:47:45.612Z,1010.29
2023-04-02T15:48:45.586Z,1010.36
2023-04-02T15:49:45.539Z,1010.31
2023-04-02T15:50:45.538Z,1010.34
2023-04-02T15:51:46.308Z,1010.36
2023-04-02T15:52:45.532Z,1010.35
2023-04-02T15:53:45.492Z,1010.37
2023-04-02T15:54:45.522Z,1010.35
2023-04-02T15:55:45.526Z,1010.36
2023-04-02T15:56:45.494Z,1010.37
2023-04-02T15:57:45.453Z,1010.36
2023-04-02T15:58:45.476Z,1010.41
2023-04-02T15:59:45.453Z,1010.41
2023-04-02T16:00:45.513Z,1010.40
2023-04-02T16:01:45.444Z,1010.42
2023-04-02T16:02:45.479Z,1010.49
2023-04-02T16:03:45.414Z,1010.49
2023-04-02T16:04:45.402Z,1010.45
2023-04-02T16:05:45.374Z,1010.48
2023-04-02T16:06:45.412Z,1010.49
2023-04-02T16:07:45.357Z,1010.55
2023-04-02T16:08:45.383Z,1010.56
2023-04-02T16:09:45.324Z,1010.54
2023-04-02T16:10:45.685Z,1010.59
2023-04-02T16:11:45.311Z,1010.58
2023-04-02T16:12:45.346Z,1010.60
2023-04-02T16:13:45.272Z,1010.71
2023-04-02T16:14:45.310Z,1010.61
2023-04-02T16:15:45.336Z,1010.62
2023-04-02T16:16:45.334Z,1010.65
2023-04-02T16:17:45.262Z,1010.70
2023-04-02T16:18:45.276Z,1010.75
2023-04-02T16:19:45.225Z,1010.76
2023-04-02T16:20:45.245Z,1010.76
2023-04-02T16:21:45.198Z,1010.75
2023-04-02T16:22:59.503Z,1010.81
2023-04-02T16:23:45.199Z,1010.86
2023-04-02T16:24:45.175Z,1010.79
2023-04-02T16:25:45.168Z,1010.80
2023-04-02T16:26:45.181Z,1010.84
2023-04-02T16:27:45.142Z,1010.87
2023-04-02T16:28:45.154Z,1010.89
2023-04-02T16:29:53.870Z,1010.86
2023-04-02T16:30:45.134Z,1010.87
2023-04-02T16:31:45.115Z,1010.85
2023-04-02T16:32:45.152Z,1010.90
2023-04-02T16:33:45.118Z,1010.90
2023-04-02T16:34:45.089Z,1010.91
2023-04-02T16:35:45.120Z,1010.91
2023-04-02T16:36:45.054Z,1010.93
2023-04-02T16:37:45.053Z,1010.94
2023-04-02T16:38:45.094Z,1011.00